createdAt,value
2019-03-09T00:00:42.652Z,98.50
2019-03-09T00:03:11.887Z,98.50
2019-03-09T00:05:41.199Z,98.50
2019-03-09T00:08:10.424Z,98.60
2019-03-09T00:10:39.664Z,98.60
2019-03-09T00:13:09.005Z,98.60
2019-03-09T00:15:38.246Z,98.60
2019-03-09T00:18:07.569Z,98.70
2019-03-09T00:20:37.237Z,98.80
2019-03-09T00:23:22.649Z,98.80
2019-03-09T00:26:11.229Z,98.60
2019-03-09T00:28:48.056Z,98.60
2019-03-09T00:31:31.849Z,98.80
2019-03-09T00:34:01.106Z,98.80
2019-03-09T00:36:30.342Z,98.90
2019-03-09T00:38:59.577Z,99.00
2019-03-09T00:41:29.946Z,99.20
2019-03-09T00:43:59.235Z,99.20
2019-03-09T00:46:28.499Z,99.10
2019-03-09T00:48:57.737Z,99.20
2019-03-09T00:51:26.972Z,99.40
2019-03-09T00:53:56.406Z,99.40
2019-03-09T00:56:26.067Z,99.60
2019-03-09T00:58:55.306Z,99.50
2019-03-09T01:01:24.559Z,99.40
2019-03-09T01:03:53.887Z,99.40
2019-03-09T01:06:23.326Z,99.30
2019-03-09T01:08:52.635Z,99.50
2019-03-09T01:11:21.940Z,99.50
2019-03-09T01:13:51.362Z,99.50
2019-03-09T01:16:20.585Z,99.50
2019-03-09T01:18:50.342Z,99.40
2019-03-09T01:21:19.607Z,99.40
2019-03-09T01:23:48.912Z,99.40
2019-03-09T01:26:18.179Z,99.40
2019-03-09T01:28:47.416Z,99.40
2019-03-09T01:31:16.676Z,99.50
2019-03-09T01:33:45.847Z,99.50
2019-03-09T01:36:15.147Z,99.40
2019-03-09T01:38:44.388Z,99.50
2019-03-09T01:41:13.611Z,99.70
2019-03-09T01:43:42.869Z,99.60
2019-03-09T01:46:12.183Z,99.60
2019-03-09T01:48:41.518Z,99.50
2019-03-09T01:51:10.894Z,99.60
2019-03-09T01:53:40.111Z,99.50
2019-03-09T01:56:09.337Z,99.50
2019-03-09T01:58:38.615Z,99.70
2019-03-09T02:01:07.931Z,99.70
2019-03-09T02:03:37.295Z,99.70
2019-03-09T02:06:06.657Z,99.70
2019-03-09T02:08:36.504Z,99.70
2019-03-09T02:11:05.806Z,99.60
2019-03-09T02:13:35.073Z,99.50
2019-03-09T02:16:04.298Z,99.40
2019-03-09T02:18:33.627Z,99.30
2019-03-09T02:21:02.982Z,99.30
2019-03-09T02:23:32.206Z,99.30
2019-03-09T02:26:01.520Z,99.30
2019-03-09T02:28:30.779Z,99.30
2019-03-09T02:31:00.094Z,99.30
2019-03-09T02:33:29.412Z,99.30
2019-03-09T02:35:58.655Z,99.20
2019-03-09T02:38:51.175Z,99.30
2019-03-09T02:41:20.436Z,99.30
2019-03-09T02:43:49.679Z,99.20
2019-03-09T02:46:19.019Z,99.20
2019-03-09T02:48:48.238Z,99.20
2019-03-09T02:51:17.607Z,99.10
2019-03-09T02:53:46.899Z,99.20
2019-03-09T02:56:16.126Z,99.10
2019-03-09T02:58:45.356Z,99.10
2019-03-09T03:01:45.664Z,99.10
2019-03-09T03:04:14.978Z,99.00
2019-03-09T03:06:44.282Z,99.00
2019-03-09T03:09:13.640Z,99.00
2019-03-09T03:11:42.947Z,99.10
2019-03-09T03:14:12.203Z,99.00
2019-03-09T03:16:41.547Z,98.90
2019-03-09T03:19:10.775Z,98.90
2019-03-09T03:21:40.131Z,98.90
2019-03-09T03:24:09.455Z,99.00
2019-03-09T03:26:38.692Z,98.90
2019-03-09T03:29:08.040Z,98.80
2019-03-09T03:31:37.271Z,98.80
2019-03-09T03:34:06.606Z,98.80
2019-03-09T03:36:35.980Z,98.90
2019-03-09T03:39:08.123Z,98.90
2019-03-09T03:41:37.451Z,98.90
2019-03-09T03:44:06.797Z,98.80
2019-03-09T03:46:36.104Z,98.80
2019-03-09T03:49:05.847Z,98.80
2019-03-09T03:51:35.174Z,98.70
2019-03-09T03:54:04.424Z,98.80
2019-03-09T03:56:33.738Z,98.80
2019-03-09T03:59:03.057Z,98.80
2019-03-09T04:01:32.360Z,98.80
2019-03-09T04:04:01.642Z,99.00
2019-03-09T04:06:31.273Z,99.10
2019-03-09T04:09:00.536Z,99.20
2019-03-09T04:11:30.143Z,99.20
2019-03-09T04:13:59.554Z,99.20
2019-03-09T04:16:28.895Z,99.30
2019-03-09T04:18:58.144Z,99.30
2019-03-09T04:21:27.485Z,99.30
2019-03-09T04:23:56.747Z,99.20
2019-03-09T04:26:26.069Z,99.30
2019-03-09T04:28:55.380Z,99.20
2019-03-09T04:31:24.725Z,99.20
2019-03-09T04:33:53.966Z,99.20
2019-03-09T04:36:23.255Z,99.10
2019-03-09T04:38:52.491Z,99.10
2019-03-09T04:41:21.760Z,99.10
2019-03-09T04:43:50.998Z,99.20
2019-03-09T04:46:20.238Z,99.10
2019-03-09T04:48:49.461Z,99.10
2019-03-09T04:51:18.731Z,99.10
2019-03-09T04:53:47.951Z,98.90
2019-03-09T04:56:17.255Z,99.00
2019-03-09T04:58:46.532Z,98.90
2019-03-09T05:01:15.772Z,98.80
2019-03-09T05:03:45.167Z,98.80
2019-03-09T05:06:17.652Z,99.00
2019-03-09T05:08:53.571Z,98.70
2019-03-09T05:11:26.484Z,98.60
2019-03-09T05:14:08.231Z,98.70
2019-03-09T05:16:38.919Z,99.10
2019-03-09T05:19:08.547Z,98.60
2019-03-09T05:21:37.799Z,98.60
2019-03-09T05:24:07.136Z,98.50
2019-03-09T05:26:36.411Z,98.60
2019-03-09T05:29:05.632Z,98.50
2019-03-09T05:31:34.873Z,98.50
2019-03-09T05:34:04.141Z,98.40
2019-03-09T05:36:33.362Z,98.50
2019-03-09T05:39:04.452Z,98.90
2019-03-09T05:41:33.701Z,98.50
2019-03-09T05:44:02.869Z,98.50
2019-03-09T05:46:32.194Z,98.50
2019-03-09T05:49:02.612Z,98.60
2019-03-09T05:51:31.847Z,98.80
2019-03-09T05:54:01.137Z,98.90
2019-03-09T05:56:30.644Z,98.90
2019-03-09T05:58:59.880Z,98.80
2019-03-09T06:01:29.535Z,98.60
2019-03-09T06:04:00.251Z,98.40
2019-03-09T06:06:29.622Z,98.20
2019-03-09T06:08:58.917Z,98.10
2019-03-09T06:11:28.181Z,97.90
2019-03-09T06:13:57.507Z,97.90
2019-03-09T06:16:26.794Z,97.90
2019-03-09T06:18:56.023Z,97.90
2019-03-09T06:21:25.247Z,97.80
2019-03-09T06:23:54.922Z,97.50
2019-03-09T06:26:24.279Z,97.50
2019-03-09T06:28:53.665Z,97.30
2019-03-09T06:31:22.911Z,97.10
2019-03-09T06:33:54.606Z,96.90
2019-03-09T06:36:40.547Z,96.80
2019-03-09T06:39:15.674Z,96.60
2019-03-09T06:42:21.878Z,96.50
2019-03-09T06:44:51.198Z,96.70
2019-03-09T06:47:20.448Z,96.80
2019-03-09T06:49:49.679Z,96.50
2019-03-09T06:52:19.527Z,96.40
2019-03-09T06:54:48.843Z,96.30
2019-03-09T06:57:18.154Z,96.20
2019-03-09T06:59:47.535Z,96.00
2019-03-09T07:02:16.851Z,96.20
2019-03-09T07:04:46.137Z,95.90
2019-03-09T07:07:15.404Z,95.80
2019-03-09T07:09:44.630Z,95.30
2019-03-09T07:12:13.874Z,95.10
2019-03-09T07:15:21.640Z,95.00
2019-03-09T07:17:59.864Z,94.60
2019-03-09T07:20:29.178Z,94.50
2019-03-09T07:22:58.415Z,94.50
2019-03-09T07:25:27.752Z,94.40
2019-03-09T07:28:01.898Z,94.20
2019-03-09T07:30:31.149Z,94.20
2019-03-09T07:33:00.483Z,94.00
2019-03-09T07:35:29.810Z,94.10
2019-03-09T07:37:59.041Z,94.00
2019-03-09T07:40:28.466Z,94.00
2019-03-09T07:42:58.418Z,93.70
2019-03-09T07:45:27.655Z,93.60
2019-03-09T07:47:56.991Z,93.20
2019-03-09T07:50:26.319Z,93.30
2019-03-09T07:52:55.638Z,92.80
2019-03-09T07:55:24.986Z,92.90
2019-03-09T07:58:04.305Z,92.60
2019-03-09T08:00:33.583Z,92.90
2019-03-09T08:03:02.797Z,92.40
2019-03-09T08:05:32.129Z,92.50
2019-03-09T08:08:01.393Z,92.70
2019-03-09T08:10:31.095Z,92.30
2019-03-09T08:13:00.426Z,92.30
2019-03-09T08:15:29.753Z,92.40
2019-03-09T08:17:59.202Z,91.30
2019-03-09T08:20:28.513Z,91.00
2019-03-09T08:22:58.142Z,90.80
2019-03-09T08:25:27.539Z,90.60
2019-03-09T08:27:56.780Z,90.10
2019-03-09T08:30:26.126Z,90.00
2019-03-09T08:32:55.472Z,89.50
2019-03-09T08:35:24.802Z,89.20
2019-03-09T08:37:54.123Z,88.70
2019-03-09T08:40:23.367Z,88.40
2019-03-09T08:42:53.075Z,88.50
2019-03-09T08:45:22.590Z,86.90
2019-03-09T08:47:52.984Z,85.90
2019-03-09T08:50:22.955Z,85.70
2019-03-09T08:52:52.255Z,84.80
2019-03-09T08:55:22.000Z,84.40
2019-03-09T08:57:51.391Z,84.50
2019-03-09T09:00:26.762Z,83.20
2019-03-09T09:02:56.075Z,83.80
2019-03-09T09:05:25.416Z,82.70
2019-03-09T09:07:54.692Z,81.10
2019-03-09T09:10:24.040Z,80.70
2019-03-09T09:12:54.202Z,79.70
2019-03-09T09:15:23.548Z,79.70
2019-03-09T09:17:52.922Z,78.90
2019-03-09T09:20:22.739Z,78.50
2019-03-09T09:22:52.003Z,78.40
2019-03-09T09:25:21.346Z,77.00
2019-03-09T09:27:52.235Z,75.40
2019-03-09T09:30:23.858Z,75.30
2019-03-09T09:32:53.074Z,74.40
2019-03-09T09:35:22.431Z,73.20
2019-03-09T09:37:51.941Z,73.20
2019-03-09T09:40:23.069Z,72.90
2019-03-09T09:42:52.567Z,71.90
2019-03-09T09:45:21.983Z,70.60
2019-03-09T09:47:51.230Z,70.60
2019-03-09T09:50:20.474Z,71.10
2019-03-09T09:52:49.780Z,71.90
2019-03-09T09:55:19.114Z,71.50
2019-03-09T09:57:48.358Z,72.10
2019-03-09T10:00:22.683Z,72.60
2019-03-09T10:02:51.986Z,72.30
2019-03-09T10:05:21.617Z,72.10
2019-03-09T10:07:50.861Z,70.90
2019-03-09T10:10:20.199Z,69.60
2019-03-09T10:12:49.519Z,69.60
2019-03-09T10:15:21.094Z,67.80
2019-03-09T10:17:50.338Z,67.50
2019-03-09T10:20:20.478Z,68.30
2019-03-09T10:22:49.838Z,66.20
2019-03-09T10:25:19.629Z,65.20
2019-03-09T10:27:48.963Z,64.60
2019-03-09T10:30:19.806Z,64.80
2019-03-09T10:32:49.537Z,66.40
2019-03-09T10:35:18.794Z,63.50
2019-03-09T10:37:48.704Z,62.10
2019-03-09T10:40:34.550Z,63.70
2019-03-09T10:43:03.814Z,64.10
2019-03-09T10:45:33.066Z,63.80
2019-03-09T10:48:02.411Z,62.80
2019-03-09T10:50:31.638Z,62.00
2019-03-09T10:53:00.972Z,61.00
2019-03-09T10:55:30.339Z,61.20
2019-03-09T10:57:59.606Z,61.50
2019-03-09T11:00:31.103Z,60.50
2019-03-09T11:03:01.001Z,61.40
2019-03-09T11:05:30.385Z,62.90
2019-03-09T11:07:59.707Z,63.50
2019-03-09T11:10:29.036Z,63.80
2019-03-09T11:12:58.406Z,63.70
2019-03-09T11:15:27.735Z,63.50
2019-03-09T11:17:57.023Z,63.10
2019-03-09T11:20:26.330Z,63.60
2019-03-09T11:22:55.668Z,62.50
2019-03-09T11:25:25.007Z,61.60
2019-03-09T11:27:54.365Z,61.80
2019-03-09T11:30:24.906Z,63.30
2019-03-09T11:32:54.216Z,61.70
2019-03-09T11:35:23.463Z,61.40
2019-03-09T11:37:52.703Z,61.40
2019-03-09T11:40:21.930Z,61.40
2019-03-09T11:42:51.207Z,61.60
2019-03-09T11:45:20.644Z,62.30
2019-03-09T11:47:50.224Z,61.60
2019-03-09T11:50:19.685Z,62.20
2019-03-09T11:52:49.008Z,62.30
2019-03-09T11:55:18.263Z,61.60
2019-03-09T11:57:47.517Z,61.90
2019-03-09T12:00:21.659Z,61.80
2019-03-09T12:02:50.970Z,61.60
2019-03-09T12:05:20.192Z,62.80
2019-03-09T12:07:49.451Z,63.30
2019-03-09T12:10:20.186Z,63.50
2019-03-09T12:12:49.430Z,64.10
2019-03-09T12:15:18.907Z,64.60
2019-03-09T12:17:50.544Z,67.90
2019-03-09T12:20:19.918Z,75.20
2019-03-09T12:22:49.212Z,79.70
2019-03-09T12:25:18.666Z,83.90
2019-03-09T12:27:47.941Z,86.00
2019-03-09T12:30:17.376Z,87.60
2019-03-09T12:32:46.694Z,89.20
2019-03-09T12:35:16.029Z,90.50
2019-03-09T12:37:45.258Z,91.30
2019-03-09T12:40:15.891Z,91.00
2019-03-09T12:42:45.284Z,91.60
2019-03-09T12:45:15.103Z,91.60
2019-03-09T12:47:59.015Z,91.50
2019-03-09T12:50:29.787Z,91.60
2019-03-09T12:52:59.017Z,91.50
2019-03-09T12:55:28.358Z,91.60
2019-03-09T12:57:57.736Z,91.50
2019-03-09T13:00:27.116Z,91.60
2019-03-09T13:02:56.954Z,92.00
2019-03-09T13:05:26.295Z,92.60
2019-03-09T13:07:55.643Z,93.60
2019-03-09T13:10:24.965Z,94.70
2019-03-09T13:12:54.887Z,95.50
2019-03-09T13:15:24.157Z,96.50
2019-03-09T13:17:53.531Z,96.60
2019-03-09T13:20:22.943Z,97.40
2019-03-09T13:22:52.139Z,98.20
2019-03-09T13:25:21.468Z,98.40
2019-03-09T13:27:50.698Z,98.80
2019-03-09T13:30:20.435Z,98.40
2019-03-09T13:32:49.694Z,98.50
2019-03-09T13:35:18.949Z,98.40
2019-03-09T13:37:48.301Z,98.60
2019-03-09T13:40:18.456Z,99.00
2019-03-09T13:42:47.789Z,99.10
2019-03-09T13:45:17.118Z,99.50
2019-03-09T13:47:46.578Z,99.60
2019-03-09T13:50:15.834Z,99.30
2019-03-09T13:52:45.227Z,99.50
2019-03-09T13:55:14.570Z,99.30
2019-03-09T13:57:43.797Z,99.60
2019-03-09T14:00:14.287Z,99.90
2019-03-09T14:02:43.583Z,99.90
2019-03-09T14:05:13.445Z,99.80
2019-03-09T14:07:42.698Z,99.60
2019-03-09T14:10:12.728Z,99.70
2019-03-09T14:12:42.081Z,99.30
2019-03-09T14:15:12.893Z,99.00
2019-03-09T14:17:42.145Z,98.80
2019-03-09T14:20:11.578Z,98.80
2019-03-09T14:22:40.943Z,98.80
2019-03-09T14:25:10.352Z,98.00
2019-03-09T14:27:40.205Z,97.20
2019-03-09T14:30:11.494Z,97.30
2019-03-09T14:32:40.901Z,97.00
2019-03-09T14:35:10.325Z,97.10
2019-03-09T14:37:39.655Z,96.80
2019-03-09T14:40:09.864Z,96.90
2019-03-09T14:42:39.226Z,97.20
2019-03-09T14:45:11.908Z,97.00
2019-03-09T14:47:41.191Z,96.70
2019-03-09T14:50:10.503Z,96.00
2019-03-09T14:52:39.808Z,95.90
2019-03-09T14:55:09.530Z,95.70
2019-03-09T14:57:38.915Z,94.90
2019-03-09T15:00:11.599Z,94.30
2019-03-09T15:02:40.972Z,94.00
2019-03-09T15:05:10.385Z,93.20
2019-03-09T15:07:39.757Z,92.90
2019-03-09T15:10:09.740Z,92.70
2019-03-09T15:12:39.014Z,93.00
2019-03-09T15:15:09.539Z,92.80
2019-03-09T15:17:38.866Z,92.90
2019-03-09T15:20:08.933Z,92.80
2019-03-09T15:22:38.288Z,92.80
2019-03-09T15:25:09.357Z,93.10
2019-03-09T15:27:38.779Z,93.10
2019-03-09T15:30:10.110Z,93.10
2019-03-09T15:32:39.403Z,93.00
2019-03-09T15:35:09.494Z,92.80
2019-03-09T15:37:38.852Z,92.80
2019-03-09T15:40:08.611Z,92.80
2019-03-09T15:42:38.021Z,92.50
2019-03-09T15:45:07.852Z,92.40
2019-03-09T15:47:37.363Z,92.10
2019-03-09T15:50:07.426Z,91.80
2019-03-09T15:52:36.811Z,91.40
2019-03-09T15:55:06.574Z,91.50
2019-03-09T15:57:36.380Z,91.20
2019-03-09T16:00:08.813Z,91.30
2019-03-09T16:02:38.143Z,91.30
2019-03-09T16:05:07.387Z,91.00
2019-03-09T16:07:36.655Z,90.80
2019-03-09T16:10:06.320Z,90.80
2019-03-09T16:12:36.274Z,90.80
2019-03-09T16:15:05.833Z,90.30
2019-03-09T16:17:35.139Z,90.40
2019-03-09T16:20:04.819Z,90.40
2019-03-09T16:22:34.079Z,90.20
2019-03-09T16:25:03.352Z,90.10
2019-03-09T16:27:32.677Z,90.00
2019-03-09T16:30:02.725Z,90.30
2019-03-09T16:32:40.920Z,89.80
2019-03-09T16:35:18.156Z,89.80
2019-03-09T16:37:54.660Z,89.30
2019-03-09T16:40:24.063Z,89.00
2019-03-09T16:42:53.317Z,89.00
2019-03-09T16:45:22.706Z,89.00
2019-03-09T16:47:51.958Z,88.90
2019-03-09T16:50:21.239Z,88.70
2019-03-09T16:52:50.483Z,88.70
2019-03-09T16:55:19.795Z,89.50
2019-03-09T16:57:49.130Z,88.60
2019-03-09T17:00:19.636Z,89.00
2019-03-09T17:02:49.464Z,89.00
2019-03-09T17:05:18.730Z,89.00
2019-03-09T17:07:48.087Z,89.40
2019-03-09T17:10:18.973Z,89.40
2019-03-09T17:12:48.379Z,89.30
2019-03-09T17:15:17.707Z,89.40
2019-03-09T17:17:47.059Z,89.50
2019-03-09T17:20:16.764Z,89.50
2019-03-09T17:22:46.021Z,89.30
2019-03-09T17:25:15.924Z,89.80
2019-03-09T17:27:45.222Z,89.80
2019-03-09T17:30:15.997Z,89.90
2019-03-09T17:32:45.651Z,90.10
2019-03-09T17:35:14.946Z,90.00
2019-03-09T17:37:44.538Z,90.20
2019-03-09T17:40:14.760Z,90.40
2019-03-09T17:42:44.123Z,90.40
2019-03-09T17:45:15.961Z,90.60
2019-03-09T17:47:45.239Z,90.60
2019-03-09T17:50:14.728Z,90.80
2019-03-09T17:52:44.084Z,90.80
2019-03-09T17:55:13.632Z,90.70
2019-03-09T17:57:42.995Z,90.70
2019-03-09T18:00:17.770Z,90.80
2019-03-09T18:02:47.033Z,90.90
2019-03-09T18:05:16.358Z,90.90
2019-03-09T18:07:45.634Z,91.00
2019-03-09T18:10:18.502Z,91.00
2019-03-09T18:12:47.845Z,91.10
2019-03-09T18:15:17.094Z,90.90
2019-03-09T18:17:46.370Z,90.90
2019-03-09T18:20:15.633Z,90.80
2019-03-09T18:22:44.956Z,90.90
2019-03-09T18:25:14.312Z,90.80
2019-03-09T18:27:43.723Z,90.90
2019-03-09T18:30:13.252Z,90.80
2019-03-09T18:32:42.580Z,90.70
2019-03-09T18:35:12.086Z,90.70
2019-03-09T18:37:41.450Z,90.70
2019-03-09T18:40:10.831Z,90.70
2019-03-09T18:42:40.179Z,90.70
2019-03-09T18:45:12.518Z,90.80
2019-03-09T18:47:41.822Z,91.30
2019-03-09T18:50:11.387Z,91.70
2019-03-09T18:53:11.845Z,92.40
2019-03-09T18:55:41.369Z,93.40
2019-03-09T18:58:33.378Z,96.50
2019-03-09T19:01:21.311Z,97.60
2019-03-09T19:04:03.943Z,99.10
2019-03-09T19:07:03.524Z,99.70
2019-03-09T19:09:32.933Z,99.90
2019-03-09T19:12:10.860Z,99.80
2019-03-09T19:14:46.167Z,99.90
2019-03-09T19:17:15.627Z,99.90
2019-03-09T19:20:15.157Z,99.90
2019-03-09T19:22:54.333Z,99.70
2019-03-09T19:25:23.679Z,99.60
2019-03-09T19:27:52.938Z,99.70
2019-03-09T19:30:22.136Z,99.70
2019-03-09T19:32:59.921Z,99.70
2019-03-09T19:35:22.465Z,99.90
2019-03-09T19:37:51.804Z,99.90
2019-03-09T19:40:21.149Z,99.90
2019-03-09T19:42:50.525Z,99.90
2019-03-09T19:45:19.794Z,99.90
2019-03-09T19:47:49.057Z,99.90
2019-03-09T19:50:18.859Z,99.90
2019-03-09T19:52:48.040Z,99.90
2019-03-09T19:55:17.564Z,99.90
2019-03-09T19:57:46.886Z,99.90
2019-03-09T20:00:16.447Z,99.90
2019-03-09T20:02:45.780Z,99.90
2019-03-09T20:05:15.304Z,99.90
2019-03-09T20:07:44.633Z,99.90
2019-03-09T20:10:14.490Z,99.90
2019-03-09T20:12:43.816Z,99.90
2019-03-09T20:15:14.021Z,99.90
2019-03-09T20:17:45.646Z,99.90
2019-03-09T20:20:14.631Z,99.90
2019-03-09T20:22:43.956Z,99.90
2019-03-09T20:25:13.869Z,99.90
2019-03-09T20:27:43.106Z,99.90
2019-03-09T20:30:12.664Z,99.90
2019-03-09T20:32:42.047Z,99.90
2019-03-09T20:35:11.961Z,99.90
2019-03-09T20:37:41.270Z,99.90
2019-03-09T20:40:10.886Z,99.90
2019-03-09T20:42:40.611Z,99.90
2019-03-09T20:45:11.913Z,99.90
2019-03-09T20:47:41.236Z,99.90
2019-03-09T20:50:12.960Z,99.90
2019-03-09T20:52:42.238Z,99.90
2019-03-09T20:55:11.562Z,99.90
2019-03-09T20:57:40.890Z,99.90
2019-03-09T21:00:13.083Z,99.90
2019-03-09T21:02:42.392Z,99.90
2019-03-09T21:05:11.637Z,99.90
2019-03-09T21:07:40.909Z,99.90
2019-03-09T21:10:11.145Z,99.90
2019-03-09T21:12:58.640Z,99.90
2019-03-09T21:15:27.958Z,99.90
2019-03-09T21:17:57.263Z,99.90
2019-03-09T21:20:26.537Z,99.90
2019-03-09T21:22:55.791Z,99.90
2019-03-09T21:25:25.035Z,99.90
2019-03-09T21:27:54.694Z,99.90
2019-03-09T21:30:24.001Z,99.90
2019-03-09T21:32:53.547Z,99.90
2019-03-09T21:35:23.258Z,99.90
2019-03-09T21:37:52.791Z,99.90
2019-03-09T21:40:22.017Z,99.90
2019-03-09T21:42:51.381Z,99.90
2019-03-09T21:45:20.723Z,99.90
2019-03-09T21:47:49.955Z,99.90
2019-03-09T21:50:19.210Z,99.90
2019-03-09T21:52:48.540Z,99.90
2019-03-09T21:55:17.850Z,99.90
2019-03-09T21:57:47.198Z,99.90
2019-03-09T22:00:16.723Z,99.90
2019-03-09T22:02:45.968Z,99.90
2019-03-09T22:05:15.294Z,99.90
2019-03-09T22:07:44.607Z,99.90
2019-03-09T22:10:13.983Z,99.90
2019-03-09T22:12:43.310Z,99.90
2019-03-09T22:15:12.927Z,99.90
2019-03-09T22:17:42.282Z,99.90
2019-03-09T22:20:11.568Z,99.90
2019-03-09T22:22:40.786Z,99.90
2019-03-09T22:25:10.216Z,99.90
2019-03-09T22:27:39.579Z,99.70
2019-03-09T22:30:10.260Z,99.90
2019-03-09T22:32:39.626Z,99.60
2019-03-09T22:35:11.183Z,99.50
2019-03-09T22:37:40.659Z,99.60
2019-03-09T22:40:11.215Z,99.50
2019-03-09T22:42:40.629Z,99.40
2019-03-09T22:45:10.839Z,99.40
2019-03-09T22:47:40.212Z,99.50
2019-03-09T22:50:11.286Z,99.50
2019-03-09T22:52:40.671Z,99.60
2019-03-09T22:55:10.748Z,99.50
2019-03-09T22:57:40.106Z,99.40
2019-03-09T23:00:11.540Z,99.10
2019-03-09T23:02:40.898Z,99.00
2019-03-09T23:05:10.715Z,99.30
2019-03-09T23:07:40.527Z,99.60
2019-03-09T23:10:11.977Z,99.60
2019-03-09T23:12:41.213Z,99.70
2019-03-09T23:15:12.137Z,99.60
2019-03-09T23:17:41.365Z,99.90
2019-03-09T23:20:11.830Z,99.90
2019-03-09T23:22:41.162Z,99.90
2019-03-09T23:25:10.781Z,99.90
2019-03-09T23:27:46.519Z,99.90
2019-03-09T23:30:17.236Z,99.90
2019-03-09T23:32:46.590Z,99.90
2019-03-09T23:35:16.041Z,99.90
2019-03-09T23:37:45.783Z,99.90
2019-03-09T23:40:17.016Z,99.90
2019-03-09T23:42:46.404Z,99.90
2019-03-09T23:45:16.473Z,99.90
2019-03-09T23:47:51.576Z,99.90
2019-03-09T23:50:23.014Z,99.90
2019-03-09T23:52:52.851Z,99.90
2019-03-09T23:55:23.149Z,99.90
2019-03-09T23:57:55.598Z,99.90
